Time;durP1;ratioP1;P1;durP2;ratioP2;P2;SDS_P1;SDS_P2;PMS_P1;PMS_P2;Temp;Humidity;BMP_temperature;BMP_pressure;BME280_temperature;BME280_humidity;BME280_pressure;Samples;Min_cycle;Max_cycle;Signal;HPM_P1;HPM_P2
2022/07/25 00:00:44;;;;;;;10.52;8.90;;;24.50;99.90;;;;;;5091522;28;20060;-74
2022/07/25 00:03:10;;;;;;;12.65;8.23;;;24.40;99.90;;;;;;5081122;28;20521;-74
2022/07/25 00:05:35;;;;;;;9.27;8.38;;;24.40;99.90;;;;;;5087885;28;20091;-74
2022/07/25 00:08:01;;;;;;;8.93;8.02;;;24.40;99.90;;;;;;5083232;28;20052;-74
2022/07/25 00:10:27;;;;;;;9.25;8.23;;;24.40;99.90;;;;;;5089630;28;20024;-74
2022/07/25 00:12:53;;;;;;;9.85;8.75;;;24.40;99.90;;;;;;5083600;28;20032;-74
2022/07/25 00:15:18;;;;;;;9.65;8.07;;;24.40;99.90;;;;;;5076965;28;20024;-74
2022/07/25 00:17:44;;;;;;;9.00;8.07;;;24.30;99.90;;;;;;5088951;28;20140;-75
2022/07/25 00:20:10;;;;;;;11.75;8.32;;;24.20;99.90;;;;;;5085267;28;20033;-75
2022/07/25 00:22:36;;;;;;;13.48;9.43;;;24.20;99.90;;;;;;5085217;28;20045;-74
2022/07/25 00:25:02;;;;;;;8.65;7.93;;;24.20;99.90;;;;;;5088478;28;20569;-75
2022/07/25 00:27:27;;;;;;;10.55;8.35;;;24.10;99.90;;;;;;5085940;28;20095;-74
2022/07/25 00:29:54;;;;;;;12.13;8.50;;;24.00;99.90;;;;;;5083631;28;20115;-73
2022/07/25 00:32:19;;;;;;;8.98;8.02;;;24.00;99.90;;;;;;5086525;28;20028;-73
2022/07/25 00:34:45;;;;;;;9.38;8.52;;;24.00;99.90;;;;;;5095586;28;20036;-74
2022/07/25 00:37:10;;;;;;;10.50;8.27;;;23.90;99.90;;;;;;5085921;28;20397;-74
2022/07/25 00:39:36;;;;;;;10.70;8.10;;;23.90;99.90;;;;;;5081917;28;20381;-73
2022/07/25 00:42:02;;;;;;;9.73;8.48;;;23.80;99.90;;;;;;5081947;28;20029;-73
2022/07/25 00:44:30;;;;;;;8.85;7.95;;;23.70;99.90;;;;;;5092233;28;20036;-73
2022/07/25 00:46:56;;;;;;;9.93;8.93;;;23.60;99.90;;;;;;5082653;28;20032;-74
2022/07/25 00:49:23;;;;;;;9.73;8.70;;;23.60;99.90;;;;;;5081491;28;20033;-73
2022/07/25 00:51:49;;;;;;;9.57;8.60;;;23.50;99.90;;;;;;5084056;28;20209;-74
2022/07/25 00:54:15;;;;;;;10.13;8.88;;;23.50;99.90;;;;;;5084576;28;20032;-73
2022/07/25 00:56:41;;;;;;;10.10;9.10;;;23.50;99.90;;;;;;5095636;28;20035;-74
2022/07/25 00:59:08;;;;;;;9.52;8.43;;;23.50;99.90;;;;;;5087342;28;20028;-74
2022/07/25 01:01:34;;;;;;;10.73;8.43;;;23.50;99.90;;;;;;5090371;28;20392;-74
2022/07/25 01:04:00;;;;;;;9.68;8.75;;;23.50;99.90;;;;;;5087294;28;20363;-73
2022/07/25 01:06:25;;;;;;;11.93;8.80;;;23.40;99.90;;;;;;5084721;28;20526;-74
2022/07/25 01:08:53;;;;;;;9.40;8.40;;;23.40;99.90;;;;;;5082987;28;20064;-73
2022/07/25 01:11:19;;;;;;;10.10;8.90;;;23.40;99.90;;;;;;5087670;28;20032;-74
2022/07/25 01:13:44;;;;;;;9.18;8.18;;;23.30;99.90;;;;;;5086163;28;20024;-74
2022/07/25 01:16:10;;;;;;;11.20;8.65;;;23.30;99.90;;;;;;5089357;28;20091;-74
2022/07/25 01:18:35;;;;;;;10.95;8.30;;;23.30;99.90;;;;;;5093487;28;20031;-74
2022/07/25 01:21:01;;;;;;;10.02;8.27;;;23.20;99.90;;;;;;5080906;28;20393;-74
2022/07/25 01:23:27;;;;;;;8.68;7.90;;;23.20;99.90;;;;;;5082565;28;20020;-74
2022/07/25 01:25:53;;;;;;;9.15;8.25;;;23.20;99.90;;;;;;5086698;28;20401;-73
2022/07/25 01:28:18;;;;;;;10.75;8.38;;;23.30;99.90;;;;;;5083876;28;20035;-73
2022/07/25 01:30:44;;;;;;;9.93;8.57;;;23.20;99.90;;;;;;5092945;28;20137;-73
2022/07/25 01:33:15;;;;;;;12.80;8.98;;;23.10;99.90;;;;;;5085021;28;20020;-74
2022/07/25 01:35:41;;;;;;;9.40;8.45;;;23.10;99.90;;;;;;5086944;28;20495;-74
2022/07/25 01:38:07;;;;;;;8.80;7.75;;;23.10;99.90;;;;;;5091112;28;20032;-74
2022/07/25 01:40:33;;;;;;;10.05;9.02;;;23.10;99.90;;;;;;5078863;28;20044;-74
2022/07/25 01:42:58;;;;;;;8.95;8.15;;;23.00;99.90;;;;;;5085329;28;20770;-74
2022/07/25 01:45:24;;;;;;;9.80;8.70;;;23.00;99.90;;;;;;5087573;28;20028;-74
2022/07/25 01:47:49;;;;;;;9.73;8.73;;;23.00;99.90;;;;;;5086767;28;20385;-74
2022/07/25 01:50:15;;;;;;;11.95;8.05;;;23.00;99.90;;;;;;5081993;28;20384;-74
2022/07/25 01:52:41;;;;;;;11.10;8.73;;;23.00;99.90;;;;;;5090430;28;20051;-73
2022/07/25 01:55:07;;;;;;;10.00;8.82;;;23.00;99.90;;;;;;5081147;28;20056;-73
2022/07/25 01:57:33;;;;;;;11.30;8.48;;;23.00;99.90;;;;;;5086097;28;20520;-73
2022/07/25 01:59:59;;;;;;;10.30;9.30;;;23.00;99.90;;;;;;5084904;28;20048;-73
2022/07/25 02:02:25;;;;;;;9.80;8.27;;;23.00;99.90;;;;;;5089622;28;20038;-73
2022/07/25 02:04:51;;;;;;;12.90;9.27;;;23.00;99.90;;;;;;5076643;28;20013;-74
2022/07/25 02:07:17;;;;;;;14.05;9.43;;;23.00;99.90;;;;;;5088280;28;20024;-74
2022/07/25 02:09:43;;;;;;;10.18;9.18;;;23.00;99.90;;;;;;5091749;28;20133;-74
2022/07/25 02:12:08;;;;;;;10.70;8.32;;;23.00;99.90;;;;;;5085501;28;20039;-74
2022/07/25 02:14:34;;;;;;;10.60;9.23;;;22.90;99.90;;;;;;5082898;28;20029;-73
2022/07/25 02:17:00;;;;;;;11.10;8.38;;;22.90;99.90;;;;;;5079189;28;20017;-73
2022/07/25 02:19:25;;;;;;;11.27;8.43;;;22.90;99.90;;;;;;5085289;28;20024;-74
2022/07/25 02:21:51;;;;;;;12.35;9.18;;;22.90;99.90;;;;;;5080828;28;20024;-73
2022/07/25 02:24:17;;;;;;;9.77;8.20;;;22.90;99.90;;;;;;5083473;28;20048;-74
2022/07/25 02:26:42;;;;;;;10.82;9.43;;;22.90;99.90;;;;;;5083363;28;20028;-74
2022/07/25 02:29:08;;;;;;;10.63;8.60;;;22.90;99.90;;;;;;5082547;28;20469;-73
2022/07/25 02:31:34;;;;;;;12.57;8.60;;;22.80;99.90;;;;;;5089383;28;20035;-73
2022/07/25 02:34:00;;;;;;;9.65;8.32;;;22.80;99.90;;;;;;5080977;28;20035;-74
2022/07/25 02:36:25;;;;;;;11.93;8.95;;;22.70;99.90;;;;;;5083070;28;20096;-73
2022/07/25 02:38:51;;;;;;;9.48;8.40;;;22.70;99.90;;;;;;5077127;28;20020;-73
2022/07/25 02:41:17;;;;;;;10.25;8.40;;;22.70;99.90;;;;;;5087760;28;20060;-74
2022/07/25 02:43:42;;;;;;;10.48;9.15;;;22.70;99.90;;;;;;5087331;28;20036;-73
2022/07/25 02:46:08;;;;;;;10.27;8.60;;;22.70;99.90;;;;;;5078818;28;20488;-73
2022/07/25 02:48:34;;;;;;;10.32;9.00;;;22.60;99.90;;;;;;5078653;28;20131;-73
2022/07/25 02:50:59;;;;;;;10.10;9.10;;;22.60;99.90;;;;;;5084280;28;20024;-74
2022/07/25 02:53:25;;;;;;;12.25;9.52;;;22.70;99.90;;;;;;5080985;28;20021;-74
2022/07/25 02:55:51;;;;;;;10.10;8.95;;;22.60;99.90;;;;;;5081875;28;20389;-73
2022/07/25 02:58:16;;;;;;;13.27;9.10;;;22.60;99.90;;;;;;5085373;28;20037;-73
2022/07/25 03:00:42;;;;;;;11.38;8.68;;;22.50;99.90;;;;;;5081758;28;20370;-73
2022/07/25 03:03:08;;;;;;;9.60;8.52;;;22.50;99.90;;;;;;5087667;28;20020;-73
2022/07/25 03:05:34;;;;;;;9.38;8.38;;;22.50;99.90;;;;;;5079574;28;20027;-73
2022/07/25 03:07:59;;;;;;;9.70;8.80;;;22.50;99.90;;;;;;5075124;28;20432;-73
2022/07/25 03:10:25;;;;;;;12.27;9.15;;;22.50;99.90;;;;;;5083173;28;20032;-74
2022/07/25 03:12:50;;;;;;;12.60;9.35;;;22.50;99.90;;;;;;5080685;28;20386;-73
2022/07/25 03:15:16;;;;;;;10.30;8.40;;;22.50;99.90;;;;;;5080136;28;20489;-74
2022/07/25 03:17:42;;;;;;;10.15;8.50;;;22.50;99.90;;;;;;5081633;28;20023;-73
2022/07/25 03:20:09;;;;;;;8.75;7.80;;;22.40;99.90;;;;;;5083619;28;20025;-73
2022/07/25 03:22:35;;;;;;;8.77;7.80;;;22.40;99.90;;;;;;5078384;28;20031;-74
2022/07/25 03:25:01;;;;;;;10.70;8.00;;;22.30;99.90;;;;;;5083014;28;20028;-73
2022/07/25 03:27:27;;;;;;;9.23;7.78;;;22.30;99.90;;;;;;5085036;28;20039;-74
2022/07/25 03:29:53;;;;;;;8.85;7.05;;;22.40;99.90;;;;;;5085031;28;20032;-74
2022/07/25 03:32:19;;;;;;;11.20;7.55;;;22.30;99.90;;;;;;5078312;28;20023;-73
2022/07/25 03:34:45;;;;;;;9.05;8.15;;;22.30;99.90;;;;;;5090887;28;20054;-73
2022/07/25 03:37:10;;;;;;;9.35;8.30;;;22.30;99.90;;;;;;5085756;28;20025;-74
2022/07/25 03:39:36;;;;;;;8.85;7.82;;;22.40;99.90;;;;;;5080395;28;20035;-74
2022/07/25 03:42:02;;;;;;;9.20;7.63;;;22.30;99.90;;;;;;5079043;28;20409;-74
2022/07/25 03:44:28;;;;;;;9.93;7.50;;;22.40;99.90;;;;;;5086910;28;20017;-73
2022/07/25 03:46:53;;;;;;;8.32;7.43;;;22.40;99.90;;;;;;5087535;28;20031;-73
2022/07/25 03:49:19;;;;;;;8.45;7.57;;;22.40;99.90;;;;;;5084003;28;20051;-73
2022/07/25 03:51:45;;;;;;;9.77;7.93;;;22.40;99.90;;;;;;5084306;28;20372;-73
2022/07/25 03:54:14;;;;;;;9.05;7.53;;;22.40;99.90;;;;;;5081813;28;20040;-73
2022/07/25 03:56:45;;;;;;;9.48;7.50;;;22.40;99.90;;;;;;5086325;28;20497;-74
2022/07/25 03:59:16;;;;;;;8.48;7.68;;;22.40;99.90;;;;;;5082680;28;20039;-74
2022/07/25 04:01:43;;;;;;;9.30;7.53;;;22.40;99.90;;;;;;5085787;28;20020;-73
2022/07/25 04:04:10;;;;;;;10.98;8.13;;;22.50;99.90;;;;;;5080025;28;20032;-73
2022/07/25 04:06:36;;;;;;;8.70;7.78;;;22.50;99.90;;;;;;5082330;28;20810;-72
2022/07/25 04:09:03;;;;;;;8.35;7.45;;;22.50;99.90;;;;;;5082874;28;20039;-73
2022/07/25 04:11:29;;;;;;;8.82;7.93;;;22.50;99.90;;;;;;5082842;28;20017;-74
2022/07/25 04:13:56;;;;;;;9.35;7.50;;;22.50;99.90;;;;;;5083301;28;20024;-72
2022/07/25 04:16:22;;;;;;;9.60;8.30;;;22.60;99.90;;;;;;5085069;28;20102;-73
2022/07/25 04:18:50;;;;;;;10.98;7.63;;;22.60;99.90;;;;;;5084662;28;20074;-73
2022/07/25 04:21:15;;;;;;;7.88;7.18;;;22.50;99.90;;;;;;5086394;28;20427;-74
2022/07/25 04:23:41;;;;;;;9.38;8.00;;;22.50;99.90;;;;;;5081926;28;20020;-73
2022/07/25 04:26:07;;;;;;;7.93;7.20;;;22.50;99.90;;;;;;5088407;28;20478;-73
2022/07/25 04:28:32;;;;;;;12.05;7.82;;;22.50;99.90;;;;;;5082785;28;20489;-74
2022/07/25 04:30:58;;;;;;;9.13;7.97;;;22.60;99.90;;;;;;5086344;28;20020;-73
2022/07/25 04:33:24;;;;;;;8.43;7.38;;;22.50;99.90;;;;;;5082130;28;20017;-74
2022/07/25 04:35:50;;;;;;;11.90;7.22;;;22.60;99.90;;;;;;5082913;28;20023;-73
2022/07/25 04:38:16;;;;;;;9.10;7.50;;;22.70;99.90;;;;;;5080897;28;20480;-73
2022/07/25 04:40:42;;;;;;;8.63;7.82;;;22.70;99.90;;;;;;5097430;28;20058;-74
2022/07/25 04:43:08;;;;;;;9.80;7.53;;;22.70;99.90;;;;;;5083124;28;20031;-73
2022/07/25 04:45:34;;;;;;;10.20;8.68;;;22.80;99.90;;;;;;5085121;28;20020;-74
2022/07/25 04:48:01;;;;;;;8.57;7.70;;;22.80;99.90;;;;;;5083205;28;20021;-74
2022/07/25 04:50:27;;;;;;;10.55;8.38;;;22.80;99.90;;;;;;5085052;28;20487;-74
2022/07/25 04:52:52;;;;;;;9.73;8.80;;;22.80;99.90;;;;;;5084014;28;20041;-73
2022/07/25 04:55:18;;;;;;;9.30;7.90;;;22.90;99.90;;;;;;5084347;28;20117;-72
2022/07/25 04:57:45;;;;;;;12.90;7.88;;;22.70;99.90;;;;;;5084130;28;20166;-74
2022/07/25 05:00:12;;;;;;;9.40;7.53;;;22.70;99.90;;;;;;5082429;28;20056;-73
2022/07/25 05:02:37;;;;;;;8.63;7.72;;;22.80;99.90;;;;;;5084074;28;20479;-74
2022/07/25 05:05:04;;;;;;;9.55;7.45;;;22.70;99.90;;;;;;5079233;28;20025;-74
2022/07/25 05:07:29;;;;;;;7.18;6.35;;;22.80;99.90;;;;;;5091051;28;20030;-73
2022/07/25 05:09:55;;;;;;;10.63;7.65;;;22.70;99.90;;;;;;5082438;28;20029;-72
2022/07/25 05:12:21;;;;;;;8.10;7.05;;;22.80;99.90;;;;;;5088892;28;20531;-72
2022/07/25 05:14:47;;;;;;;7.28;6.15;;;22.80;99.90;;;;;;5079797;28;20082;-71
2022/07/25 05:17:13;;;;;;;7.90;6.63;;;22.80;99.90;;;;;;5078379;28;20023;-72
2022/07/25 05:19:38;;;;;;;8.60;6.70;;;22.90;99.90;;;;;;5090654;28;20081;-71
2022/07/25 05:22:04;;;;;;;7.70;6.90;;;22.90;99.90;;;;;;5082032;28;20028;-72
2022/07/25 05:24:34;;;;;;;6.63;6.03;;;23.00;99.90;;;;;;5087616;28;20027;-72
2022/07/25 05:27:00;;;;;;;9.77;6.75;;;23.00;99.90;;;;;;5088475;28;20028;-72
2022/07/25 05:29:26;;;;;;;6.43;5.93;;;23.20;99.90;;;;;;5093244;28;20361;-72
2022/07/25 05:31:51;;;;;;;7.30;6.60;;;23.20;99.90;;;;;;5087674;28;20095;-72
2022/07/25 05:34:17;;;;;;;8.48;7.43;;;23.20;99.90;;;;;;5087980;28;20020;-72
2022/07/25 05:36:43;;;;;;;9.98;7.30;;;23.30;99.90;;;;;;5084296;28;20025;-71
2022/07/25 05:39:09;;;;;;;8.70;7.80;;;23.30;99.90;;;;;;5082762;28;20028;-72
2022/07/25 05:41:34;;;;;;;7.53;6.38;;;23.40;99.90;;;;;;5091784;28;20426;-73
2022/07/25 05:44:00;;;;;;;6.18;5.60;;;23.50;99.90;;;;;;5087402;28;20081;-71
2022/07/25 05:46:25;;;;;;;6.75;6.15;;;23.50;99.90;;;;;;5082132;28;20535;-71
2022/07/25 05:48:51;;;;;;;7.13;6.50;;;23.50;99.90;;;;;;5080956;28;20020;-72
2022/07/25 05:51:17;;;;;;;7.95;7.00;;;23.50;99.90;;;;;;5086913;28;20020;-72
2022/07/25 05:53:42;;;;;;;6.30;5.70;;;23.60;99.90;;;;;;5081574;28;20456;-72
2022/07/25 05:56:09;;;;;;;9.60;6.32;;;23.60;99.90;;;;;;5080463;28;20052;-71
2022/07/25 05:58:36;;;;;;;7.00;5.70;;;23.70;99.90;;;;;;5087408;28;20025;-72
2022/07/25 06:01:02;;;;;;;6.38;5.82;;;23.80;99.90;;;;;;5090570;28;20071;-72
2022/07/25 06:03:28;;;;;;;6.93;6.20;;;23.80;99.90;;;;;;5081805;28;20086;-72
2022/07/25 06:05:55;;;;;;;15.05;6.68;;;23.80;99.90;;;;;;5077675;28;20028;-74
2022/07/25 06:08:21;;;;;;;7.20;6.53;;;23.90;99.90;;;;;;5089831;28;20020;-73
2022/07/25 06:10:46;;;;;;;7.35;5.90;;;23.90;99.90;;;;;;5083761;28;20027;-74
2022/07/25 06:13:12;;;;;;;10.20;6.20;;;23.90;99.90;;;;;;5085274;28;20421;-74
2022/07/25 06:15:38;;;;;;;7.65;6.20;;;23.90;99.90;;;;;;5085866;28;20077;-74
2022/07/25 06:18:03;;;;;;;8.32;6.30;;;23.90;99.90;;;;;;5083874;28;20492;-74
2022/07/25 06:20:29;;;;;;;8.38;6.45;;;23.90;99.90;;;;;;5087540;28;20028;-74
2022/07/25 06:22:55;;;;;;;8.90;6.47;;;23.90;99.90;;;;;;5083130;28;20502;-75
2022/07/25 06:25:20;;;;;;;12.63;6.88;;;23.90;99.90;;;;;;5083554;28;20533;-74
2022/07/25 06:27:46;;;;;;;8.65;6.25;;;23.90;99.90;;;;;;5086905;28;20032;-75
2022/07/25 06:30:13;;;;;;;7.57;5.60;;;24.00;99.90;;;;;;5084116;28;20575;-74
2022/07/25 06:32:38;;;;;;;6.20;5.60;;;23.90;99.90;;;;;;5087566;28;20023;-76
2022/07/25 06:35:04;;;;;;;8.27;5.97;;;24.00;99.90;;;;;;5083237;28;20039;-73
2022/07/25 06:37:30;;;;;;;6.05;5.43;;;24.00;99.90;;;;;;5084085;28;20017;-75
2022/07/25 06:39:56;;;;;;;8.05;6.00;;;24.00;99.90;;;;;;5092669;28;20024;-75
2022/07/25 06:42:21;;;;;;;6.70;6.03;;;24.00;99.90;;;;;;5085652;28;20036;-75
2022/07/25 06:44:47;;;;;;;7.97;5.55;;;24.10;99.90;;;;;;5089100;28;20376;-73
2022/07/25 06:47:13;;;;;;;6.18;5.20;;;24.10;99.90;;;;;;5078840;28;20029;-73
2022/07/25 06:49:40;;;;;;;6.03;4.97;;;24.10;99.90;;;;;;5087996;28;20040;-73
2022/07/25 06:52:06;;;;;;;7.38;5.00;;;24.00;99.90;;;;;;5085875;28;20030;-73
2022/07/25 06:54:31;;;;;;;9.52;5.40;;;24.00;99.90;;;;;;5090301;28;20377;-73
2022/07/25 06:56:57;;;;;;;5.68;5.13;;;24.00;99.90;;;;;;5079636;28;20035;-73
2022/07/25 06:59:23;;;;;;;5.60;4.93;;;24.10;99.90;;;;;;5077762;28;20056;-73
2022/07/25 07:01:49;;;;;;;6.18;4.75;;;24.00;99.90;;;;;;5088254;28;20104;-73
2022/07/25 07:04:14;;;;;;;6.68;5.20;;;24.00;99.90;;;;;;5086071;28;20031;-74
2022/07/25 07:06:41;;;;;;;9.32;5.82;;;23.90;99.90;;;;;;5094948;28;20019;-73
2022/07/25 07:09:07;;;;;;;6.82;5.40;;;24.00;99.90;;;;;;5088347;28;20089;-73
2022/07/25 07:11:33;;;;;;;5.40;4.55;;;24.00;99.90;;;;;;5077791;28;20024;-72
2022/07/25 07:14:01;;;;;;;5.40;4.90;;;23.90;99.90;;;;;;5090404;28;20060;-73
2022/07/25 07:16:28;;;;;;;5.10;4.70;;;24.00;99.90;;;;;;5084320;28;20158;-74
2022/07/25 07:18:54;;;;;;;5.95;5.03;;;24.00;99.90;;;;;;5083110;28;20181;-73
2022/07/25 07:21:19;;;;;;;6.00;5.03;;;24.10;99.90;;;;;;5088461;28;20027;-73
2022/07/25 07:23:45;;;;;;;8.18;4.63;;;24.20;99.90;;;;;;5086053;28;20055;-72
2022/07/25 07:26:11;;;;;;;5.57;4.43;;;24.30;99.90;;;;;;5082083;28;20021;-76
2022/07/25 07:28:36;;;;;;;4.60;4.20;;;24.30;99.90;;;;;;5084513;28;20066;-73
2022/07/25 07:31:02;;;;;;;5.88;4.60;;;24.30;99.90;;;;;;5084777;28;20043;-74
2022/07/25 07:33:28;;;;;;;4.35;3.85;;;24.30;99.90;;;;;;5080989;28;20459;-73
2022/07/25 07:35:55;;;;;;;5.07;3.90;;;24.40;99.90;;;;;;5086249;28;20409;-73
2022/07/25 07:38:22;;;;;;;4.82;3.55;;;24.40;99.90;;;;;;5083772;28;20389;-73
2022/07/25 07:40:47;;;;;;;9.25;4.10;;;24.30;99.90;;;;;;5078457;28;20574;-74
2022/07/25 07:43:13;;;;;;;6.63;3.08;;;24.20;99.90;;;;;;5083569;28;20103;-72
2022/07/25 07:45:41;;;;;;;4.45;3.35;;;24.20;99.90;;;;;;5081168;28;20034;-75
2022/07/25 07:48:07;;;;;;;7.00;3.78;;;24.30;99.90;;;;;;5079486;28;20016;-71
2022/07/25 07:50:33;;;;;;;6.90;3.33;;;24.40;99.90;;;;;;5090428;28;20063;-72
2022/07/25 07:52:59;;;;;;;9.07;3.70;;;24.60;99.90;;;;;;5087535;28;20021;-73
2022/07/25 07:55:43;;;;;;;4.88;3.38;;;24.70;99.90;;;;;;5086514;28;20035;-73
2022/07/25 07:58:16;;;;;;;6.75;2.85;;;24.90;99.90;;;;;;5086402;28;20103;-73
2022/07/25 08:00:46;;;;;;;5.60;3.00;;;25.10;99.90;;;;;;5090003;28;20115;-74
2022/07/25 08:03:15;;;;;;;4.97;2.90;;;25.10;99.90;;;;;;5083155;28;20029;-75
2022/07/25 08:05:43;;;;;;;6.32;3.10;;;25.20;99.90;;;;;;5084626;28;20035;-73
2022/07/25 08:08:11;;;;;;;6.78;2.50;;;25.30;99.90;;;;;;5086501;28;20016;-74
2022/07/25 08:10:40;;;;;;;4.40;2.50;;;25.40;99.90;;;;;;5091663;28;20082;-72
2022/07/25 08:13:16;;;;;;;6.50;2.67;;;25.40;99.90;;;;;;5087007;28;20078;-72
2022/07/25 08:15:44;;;;;;;6.07;2.55;;;25.40;99.90;;;;;;5076609;28;20028;-73
2022/07/25 08:18:10;;;;;;;4.63;2.45;;;25.40;99.90;;;;;;5078304;28;20477;-74
2022/07/25 08:20:37;;;;;;;9.07;2.83;;;25.50;99.90;;;;;;5084415;28;20028;-74
2022/07/25 08:23:02;;;;;;;5.18;2.50;;;25.50;99.90;;;;;;5081015;28;20040;-73
2022/07/25 08:25:29;;;;;;;3.03;2.50;;;25.60;99.90;;;;;;5079084;28;20032;-75
2022/07/25 08:27:54;;;;;;;7.00;3.10;;;25.60;99.90;;;;;;5079763;28;20486;-74
2022/07/25 08:30:20;;;;;;;7.65;2.15;;;25.70;99.90;;;;;;5081239;28;20081;-73
2022/07/25 08:32:48;;;;;;;7.85;2.60;;;25.70;99.90;;;;;;5080336;28;20548;-74
2022/07/25 08:35:14;;;;;;;4.30;1.98;;;26.00;99.90;;;;;;5080600;28;20050;-73
2022/07/25 08:37:40;;;;;;;6.03;2.55;;;25.90;99.90;;;;;;5081290;28;20024;-74
2022/07/25 08:40:06;;;;;;;5.53;2.05;;;25.90;99.90;;;;;;5082026;28;20130;-74
2022/07/25 08:42:36;;;;;;;5.97;1.80;;;25.80;99.90;;;;;;5087854;28;20060;-74
2022/07/25 08:45:06;;;;;;;5.28;2.47;;;25.80;99.90;;;;;;5091959;28;20020;-75
2022/07/25 08:47:32;;;;;;;8.50;2.03;;;26.00;99.90;;;;;;5081875;28;20466;-72
2022/07/25 08:49:57;;;;;;;3.85;1.67;;;26.00;99.90;;;;;;5084335;28;20032;-72
2022/07/25 08:52:23;;;;;;;3.45;1.90;;;26.20;99.90;;;;;;5089453;28;20142;-73
2022/07/25 08:54:50;;;;;;;4.93;2.30;;;26.50;99.90;;;;;;5086316;28;20501;-71
2022/07/25 08:57:16;;;;;;;5.75;2.17;;;26.80;99.90;;;;;;5083504;28;20063;-73
2022/07/25 08:59:43;;;;;;;9.45;2.30;;;26.90;99.90;;;;;;5087520;28;20501;-74
2022/07/25 09:02:13;;;;;;;8.50;2.50;;;27.00;99.90;;;;;;5085223;28;20017;-72
2022/07/25 09:04:38;;;;;;;11.90;2.83;;;27.20;99.90;;;;;;5088977;28;20020;-74
2022/07/25 09:07:05;;;;;;;5.82;2.30;;;27.30;99.90;;;;;;5087444;28;20058;-73
2022/07/25 09:09:37;;;;;;;4.10;1.98;;;27.40;99.90;;;;;;5086325;28;20028;-72
2022/07/25 09:12:04;;;;;;;3.63;2.13;;;27.50;99.90;;;;;;5093064;28;20115;-74
2022/07/25 09:14:29;;;;;;;3.17;1.88;;;27.50;99.90;;;;;;5082938;28;20497;-76
2022/07/25 09:16:55;;;;;;;4.35;2.38;;;27.70;99.90;;;;;;5087030;28;20059;-73
2022/07/25 09:19:23;;;;;;;4.25;2.20;;;27.80;99.90;;;;;;5088186;28;20601;-74
2022/07/25 09:22:05;;;;;;;7.80;2.10;;;27.90;99.90;;;;;;5084389;28;20020;-73
2022/07/25 09:24:31;;;;;;;5.55;2.25;;;28.10;99.90;;;;;;5092435;28;20448;-74
2022/07/25 09:26:59;;;;;;;9.30;2.67;;;28.20;99.90;;;;;;5079546;28;20546;-73
2022/07/25 09:29:28;;;;;;;6.72;2.55;;;28.30;99.90;;;;;;5089099;28;20036;-74
2022/07/25 09:31:55;;;;;;;4.43;1.83;;;28.30;99.90;;;;;;5080471;28;20462;-74
2022/07/25 09:34:36;;;;;;;6.65;2.00;;;28.30;99.90;;;;;;5085314;28;20024;-75
2022/07/25 09:37:07;;;;;;;10.20;2.42;;;28.40;99.90;;;;;;5085139;28;20100;-73
2022/07/25 09:39:45;;;;;;;6.50;2.55;;;28.50;99.90;;;;;;5083946;28;20016;-74
2022/07/25 09:42:30;;;;;;;2.08;1.40;;;28.70;99.90;;;;;;5084678;28;20095;-74
2022/07/25 09:44:57;;;;;;;5.30;1.83;;;28.90;99.70;;;;;;5085133;28;20111;-74
2022/07/25 09:47:22;;;;;;;4.63;2.03;;;29.10;99.70;;;;;;5088119;28;20111;-73
2022/07/25 09:49:48;;;;;;;4.47;2.00;;;29.30;99.90;;;;;;5084906;28;20111;-73
2022/07/25 09:52:16;;;;;;;5.63;2.15;;;29.40;99.70;;;;;;5086599;28;20033;-74
2022/07/25 09:54:42;;;;;;;3.25;1.75;;;29.40;99.70;;;;;;5084694;28;20028;-73
2022/07/25 09:57:07;;;;;;;6.13;1.98;;;29.50;99.00;;;;;;5084989;28;20068;-74
2022/07/25 09:59:34;;;;;;;5.93;1.88;;;29.50;97.20;;;;;;5084565;28;20055;-74
2022/07/25 10:02:06;;;;;;;4.63;1.92;;;29.50;98.30;;;;;;5085363;28;20020;-73
2022/07/25 10:05:13;;;;;;;3.08;1.98;;;29.40;97.20;;;;;;5086305;28;20024;-73
2022/07/25 10:07:44;;;;;;;2.72;1.80;;;29.50;98.10;;;;;;5088110;28;20028;-74
2022/07/25 10:10:26;;;;;;;5.05;2.08;;;29.60;98.20;;;;;;5082153;28;20040;-74
2022/07/25 10:13:09;;;;;;;2.70;2.17;;;29.60;97.70;;;;;;5079976;28;20031;-74
2022/07/25 10:15:50;;;;;;;5.85;2.38;;;29.70;96.30;;;;;;5084229;28;20381;-73
2022/07/25 10:18:22;;;;;;;5.25;1.90;;;29.70;96.10;;;;;;5088682;28;20039;-74
2022/07/25 10:20:49;;;;;;;6.75;2.22;;;29.70;96.80;;;;;;5089453;28;20024;-73
2022/07/25 10:23:26;;;;;;;5.40;2.17;;;29.80;96.40;;;;;;5092356;28;20024;-74
2022/07/25 10:26:12;;;;;;;3.83;1.83;;;29.70;95.70;;;;;;5079260;28;20023;-75
2022/07/25 10:28:45;;;;;;;5.80;1.90;;;29.70;95.90;;;;;;5084590;28;20047;-74
2022/07/25 10:31:33;;;;;;;5.53;2.58;;;29.80;96.30;;;;;;5078357;28;20036;-74
2022/07/25 10:34:04;;;;;;;4.63;2.53;;;29.90;96.30;;;;;;5084186;28;20055;-73
2022/07/25 10:36:50;;;;;;;5.85;2.72;;;29.50;96.30;;;;;;5083066;28;20024;-73
2022/07/25 10:39:18;;;;;;;6.13;2.35;;;29.40;96.50;;;;;;5085258;28;20040;-74
2022/07/25 10:41:54;;;;;;;4.32;2.42;;;29.40;96.20;;;;;;5088718;28;20012;-75
2022/07/25 10:44:20;;;;;;;6.78;2.88;;;29.50;95.70;;;;;;5081497;28;20060;-73
2022/07/25 10:46:47;;;;;;;4.60;2.47;;;29.40;96.30;;;;;;5087371;28;20039;-73
2022/07/25 10:49:26;;;;;;;6.20;2.40;;;29.20;95.90;;;;;;5079060;28;20055;-74
2022/07/25 10:52:16;;;;;;;5.60;2.30;;;29.10;96.00;;;;;;5086746;28;20020;-75
2022/07/25 10:54:52;;;;;;;5.00;2.72;;;29.10;96.60;;;;;;5105133;27;20455;-73
2022/07/25 10:57:18;;;;;;;5.95;2.63;;;29.20;96.10;;;;;;5087824;28;20039;-73
2022/07/25 10:59:44;;;;;;;3.65;2.70;;;29.40;96.10;;;;;;5089133;28;20029;-74
2022/07/25 11:02:15;;;;;;;5.03;2.95;;;29.30;95.70;;;;;;5085113;28;20020;-73
2022/07/25 11:04:42;;;;;;;4.35;2.63;;;29.40;96.50;;;;;;5079978;28;20468;-73
2022/07/25 11:07:14;;;;;;;3.88;2.20;;;29.60;95.90;;;;;;5087024;28;20016;-73
2022/07/25 11:09:42;;;;;;;6.10;2.35;;;29.70;95.00;;;;;;5080755;28;20044;-73
2022/07/25 11:12:08;;;;;;;10.25;2.70;;;29.80;96.20;;;;;;5082117;28;20025;-73
2022/07/25 11:14:38;;;;;;;3.35;2.10;;;29.90;95.10;;;;;;5077177;28;20157;-74
2022/07/25 11:17:13;;;;;;;3.47;1.70;;;30.10;94.70;;;;;;5084607;28;20089;-74
2022/07/25 11:19:39;;;;;;;4.13;1.85;;;30.20;94.60;;;;;;5084791;28;20028;-74
2022/07/25 11:22:05;;;;;;;4.55;1.92;;;30.30;94.40;;;;;;5085488;28;20057;-74
2022/07/25 11:24:35;;;;;;;3.85;2.08;;;30.40;95.10;;;;;;5091712;28;20091;-74
2022/07/25 11:27:01;;;;;;;4.13;2.05;;;30.20;94.50;;;;;;5080207;28;20031;-74
2022/07/25 11:29:27;;;;;;;4.03;2.28;;;30.30;94.70;;;;;;5080226;28;20151;-73
2022/07/25 11:31:59;;;;;;;4.72;2.35;;;30.10;94.00;;;;;;5084279;28;20516;-75
2022/07/25 11:34:27;;;;;;;7.57;2.17;;;29.90;94.00;;;;;;5084151;28;20035;-74
2022/07/25 11:36:56;;;;;;;4.43;2.10;;;29.70;94.80;;;;;;5082620;28;20024;-74
2022/07/25 11:39:25;;;;;;;3.97;1.85;;;29.60;94.40;;;;;;5090851;28;20028;-73
2022/07/25 11:42:01;;;;;;;6.03;2.08;;;29.40;94.40;;;;;;5085422;28;20020;-74
2022/07/25 11:44:47;;;;;;;9.85;2.33;;;29.30;94.50;;;;;;5084060;28;20020;-74
2022/07/25 11:47:22;;;;;;;3.13;2.08;;;29.10;94.80;;;;;;5085840;28;20063;-72
2022/07/25 11:49:49;;;;;;;3.10;1.80;;;29.00;94.90;;;;;;5084796;28;20051;-74
2022/07/25 11:52:35;;;;;;;4.07;2.08;;;28.90;96.00;;;;;;5083383;28;20033;-74
2022/07/25 11:55:10;;;;;;;2.58;1.90;;;28.90;95.60;;;;;;5077349;28;20020;-73
2022/07/25 11:57:43;;;;;;;3.40;1.98;;;29.10;95.50;;;;;;5084968;28;20035;-74
2022/07/25 12:00:20;;;;;;;4.78;2.10;;;29.20;95.10;;;;;;5081856;28;20095;-75
2022/07/25 12:02:46;;;;;;;3.10;1.98;;;29.10;94.50;;;;;;5079647;28;20028;-74
2022/07/25 12:05:18;;;;;;;3.05;1.95;;;28.90;94.00;;;;;;5082814;28;20038;-74
2022/07/25 12:07:47;;;;;;;3.83;2.27;;;29.00;94.20;;;;;;5087899;28;20024;-73
2022/07/25 12:10:23;;;;;;;4.57;1.88;;;29.00;94.00;;;;;;5087392;28;20471;-74
2022/07/25 12:12:50;;;;;;;4.78;2.05;;;28.90;94.70;;;;;;5080617;28;20024;-73
2022/07/25 12:15:22;;;;;;;2.67;2.22;;;28.90;95.40;;;;;;5080486;28;20427;-73
2022/07/25 12:17:50;;;;;;;6.05;2.10;;;28.80;95.10;;;;;;5081978;28;20461;-73
2022/07/25 12:20:23;;;;;;;5.72;2.22;;;28.60;95.00;;;;;;5091283;28;20020;-73
2022/07/25 12:22:50;;;;;;;3.58;2.20;;;28.50;95.00;;;;;;5086034;28;20033;-74
2022/07/25 12:25:16;;;;;;;7.10;1.85;;;28.40;94.90;;;;;;5095815;28;20093;-74
2022/07/25 12:27:42;;;;;;;3.83;1.90;;;28.20;95.10;;;;;;5089698;28;20076;-73
2022/07/25 12:30:09;;;;;;;6.25;1.92;;;28.00;95.40;;;;;;5088240;28;20097;-73
2022/07/25 12:32:35;;;;;;;4.70;2.45;;;28.10;95.90;;;;;;5087990;28;20105;-73
2022/07/25 12:35:03;;;;;;;6.75;2.50;;;28.10;95.80;;;;;;5086065;27;20035;-74
2022/07/25 12:37:28;;;;;;;4.78;2.30;;;28.10;96.30;;;;;;5098599;28;20020;-73
2022/07/25 12:39:54;;;;;;;4.40;2.17;;;28.00;96.30;;;;;;5086843;28;20035;-74
2022/07/25 12:42:20;;;;;;;5.35;2.63;;;28.00;96.20;;;;;;5089887;27;20392;-73
2022/07/25 12:44:45;;;;;;;5.03;2.25;;;27.90;96.20;;;;;;5090605;28;20064;-72
2022/07/25 12:47:11;;;;;;;4.07;2.10;;;27.80;96.50;;;;;;5083269;28;20098;-72